createdAt,value
2018-11-01T00:04:26.421Z,176.77
2018-11-01T00:07:07.675Z,176.73
2018-11-01T00:10:01.015Z,174.93
2018-11-01T00:12:45.508Z,174.10
2018-11-01T00:18:26.910Z,183.00
2018-11-01T00:21:20.393Z,172.60
2018-11-01T00:24:33.570Z,188.57
2018-11-01T00:27:14.309Z,180.13
2018-11-01T00:29:58.052Z,182.27
2018-11-01T00:32:39.698Z,180.53
2018-11-01T00:35:22.184Z,171.50
2018-11-01T00:38:03.673Z,178.60
2018-11-01T00:40:48.431Z,179.07
2018-11-01T00:43:31.538Z,259.40
2018-11-01T00:46:10.499Z,177.97
2018-11-01T00:48:50.856Z,184.10
2018-11-01T00:51:34.585Z,198.93
2018-11-01T00:54:17.211Z,185.23
2018-11-01T00:56:58.713Z,169.40
2018-11-01T00:59:43.445Z,175.90
2018-11-01T01:11:16.409Z,177.87
2018-11-01T01:13:54.390Z,183.57
2018-11-01T01:16:32.639Z,177.80
2018-11-01T01:19:11.087Z,188.70
2018-11-01T01:21:49.415Z,167.37
2018-11-01T01:24:27.955Z,164.07
2018-11-01T01:27:06.690Z,174.00
2018-11-01T01:29:47.476Z,178.47
2018-11-01T01:35:57.897Z,191.03
2018-11-01T01:38:46.800Z,166.07
2018-11-01T01:41:29.603Z,178.93
2018-11-01T01:44:10.179Z,200.57
2018-11-01T01:49:49.512Z,164.17
2018-11-01T01:52:31.136Z,194.80
2018-11-01T01:55:09.126Z,167.27
2018-11-01T01:57:46.284Z,188.33
2018-11-01T02:00:23.896Z,283.70
2018-11-01T02:03:04.140Z,231.47
2018-11-01T02:05:43.002Z,182.53
2018-11-01T02:08:24.404Z,179.10
2018-11-01T02:11:04.841Z,186.63
2018-11-01T02:13:47.081Z,189.50
2018-11-01T02:16:30.519Z,178.90
2018-11-01T02:19:18.748Z,185.33
2018-11-01T02:22:04.133Z,179.30
2018-11-01T02:27:50.319Z,194.97
2018-11-01T02:30:29.378Z,186.03
2018-11-01T02:33:09.676Z,178.47
2018-11-01T02:35:48.918Z,189.10
2018-11-01T02:38:29.693Z,184.10
2018-11-01T02:41:06.523Z,160.60
2018-11-01T02:43:44.345Z,201.80
2018-11-01T02:46:23.849Z,209.33
2018-11-01T02:49:02.470Z,191.77
2018-11-01T02:51:41.511Z,186.83
2018-11-01T02:54:19.012Z,183.33
2018-11-01T02:56:56.860Z,178.20
2018-11-01T02:59:35.863Z,150.57
2018-11-01T03:02:15.872Z,108.27
2018-11-01T03:04:56.776Z,131.63
2018-11-01T03:07:40.328Z,134.07
2018-11-01T03:10:19.692Z,363.77
2018-11-01T03:12:58.066Z,203.80
2018-11-01T03:15:35.029Z,121.33
2018-11-01T03:18:12.308Z,107.93
2018-11-01T03:20:50.679Z,112.03
2018-11-01T03:23:29.387Z,104.03
2018-11-01T03:26:09.645Z,117.23
2018-11-01T03:28:48.600Z,131.23
2018-11-01T03:31:25.791Z,115.80
2018-11-01T03:34:27.616Z,127.37
2018-11-01T03:37:10.274Z,137.60
2018-11-01T03:43:28.293Z,128.07
2018-11-01T03:46:11.258Z,140.33
2018-11-01T03:48:51.233Z,198.03
2018-11-01T03:51:30.869Z,178.13
2018-11-01T03:54:12.927Z,173.27
2018-11-01T03:56:53.905Z,152.03
2018-11-01T03:59:34.018Z,148.63
2018-11-01T04:02:13.599Z,135.80
2018-11-01T04:05:00.824Z,156.77
2018-11-01T04:07:39.404Z,156.17
2018-11-01T04:10:22.983Z,149.60
2018-11-01T04:13:01.964Z,149.37
2018-11-01T04:15:41.273Z,150.87
2018-11-01T04:18:18.533Z,221.33
2018-11-01T04:20:59.528Z,318.53
2018-11-01T04:23:36.491Z,192.53
2018-11-01T04:26:15.599Z,150.37
2018-11-01T04:28:52.891Z,152.87
2018-11-01T04:31:31.247Z,187.73
2018-11-01T04:34:12.131Z,144.17
2018-11-01T04:36:49.955Z,115.10
2018-11-01T04:39:36.119Z,164.17
2018-11-01T04:42:15.470Z,207.93
2018-11-01T04:44:54.272Z,184.67
2018-11-01T04:50:17.725Z,162.87
2018-11-01T04:52:56.288Z,256.23
2018-11-01T04:55:34.845Z,206.70
2018-11-01T04:58:13.050Z,124.67
2018-11-01T05:00:50.098Z,178.20
2018-11-01T05:03:29.934Z,159.00
2018-11-01T05:06:08.573Z,148.83
2018-11-01T05:08:46.537Z,141.93
2018-11-01T05:11:24.440Z,145.77
2018-11-01T05:14:02.359Z,126.50
2018-11-01T05:16:39.293Z,108.57
2018-11-01T05:19:17.608Z,102.23
2018-11-01T05:21:54.309Z,119.30
2018-11-01T05:24:32.300Z,111.47
2018-11-01T05:27:10.345Z,95.10
2018-11-01T05:29:47.019Z,100.93
2018-11-01T05:32:24.656Z,99.37
2018-11-01T05:35:03.595Z,99.07
2018-11-01T05:37:41.418Z,99.50
2018-11-01T05:40:18.470Z,84.20
2018-11-01T05:42:56.972Z,118.50
2018-11-01T05:45:34.559Z,113.43
2018-11-01T05:48:11.724Z,118.37
2018-11-01T05:50:49.699Z,94.30
2018-11-01T05:53:27.911Z,91.00
2018-11-01T05:56:04.962Z,88.93
2018-11-01T05:58:42.920Z,115.83
2018-11-01T06:01:25.217Z,103.60
2018-11-01T06:04:03.356Z,115.90
2018-11-01T06:06:44.473Z,113.23
2018-11-01T06:09:32.195Z,162.27
2018-11-01T06:12:09.851Z,115.53
2018-11-01T06:14:47.701Z,100.33
2018-11-01T06:17:25.085Z,88.20
2018-11-01T06:20:04.424Z,103.53
2018-11-01T06:22:43.279Z,124.00
2018-11-01T06:25:20.722Z,84.93
2018-11-01T06:27:58.923Z,83.53
2018-11-01T06:30:37.223Z,79.30
2018-11-01T06:33:15.760Z,84.93
2018-11-01T06:35:59.748Z,90.60
2018-11-01T06:38:38.630Z,96.33
2018-11-01T06:41:16.848Z,87.87
2018-11-01T06:43:55.797Z,90.73
2018-11-01T06:46:33.818Z,72.97
2018-11-01T06:49:10.601Z,70.53
2018-11-01T06:51:48.126Z,77.73
2018-11-01T06:54:28.534Z,70.30
2018-11-01T06:57:05.692Z,70.90
2018-11-01T06:59:42.933Z,69.70
2018-11-01T07:02:23.076Z,90.13
2018-11-01T07:05:01.058Z,69.63
2018-11-01T07:07:37.307Z,64.90
2018-11-01T07:10:17.154Z,70.90
2018-11-01T07:12:54.589Z,65.07
2018-11-01T07:15:31.376Z,69.80
2018-11-01T07:18:09.771Z,65.73
2018-11-01T07:20:49.110Z,69.97
2018-11-01T07:23:27.129Z,67.20
2018-11-01T07:26:04.840Z,72.73
2018-11-01T07:28:43.256Z,73.17
2018-11-01T07:31:22.315Z,82.00
2018-11-01T07:34:00.089Z,56.13
2018-11-01T07:36:38.977Z,61.90
2018-11-01T07:39:17.824Z,62.47
2018-11-01T07:41:55.696Z,56.67
2018-11-01T07:44:35.730Z,57.23
2018-11-01T07:47:14.908Z,69.83
2018-11-01T07:49:55.888Z,69.47
2018-11-01T07:52:32.967Z,59.83
2018-11-01T07:55:11.677Z,58.70
2018-11-01T07:57:49.787Z,71.10
2018-11-01T08:00:27.840Z,71.67
2018-11-01T08:03:06.448Z,66.90
2018-11-01T08:05:44.093Z,56.83
2018-11-01T08:08:22.179Z,59.90
2018-11-01T08:11:02.850Z,63.23
2018-11-01T08:13:41.503Z,65.83
2018-11-01T08:16:19.613Z,58.27
2018-11-01T08:18:57.503Z,53.70
2018-11-01T08:21:33.981Z,52.33
2018-11-01T08:24:11.126Z,59.97
2018-11-01T08:26:48.759Z,45.53
2018-11-01T08:29:27.950Z,54.90
2018-11-01T08:32:04.815Z,63.00
2018-11-01T08:34:42.358Z,72.70
2018-11-01T08:37:21.733Z,56.50
2018-11-01T08:39:59.044Z,64.03
2018-11-01T08:42:36.973Z,59.50
2018-11-01T08:45:15.694Z,68.57
2018-11-01T08:47:53.788Z,69.20
2018-11-01T08:50:33.730Z,76.30
2018-11-01T08:53:12.752Z,83.57
2018-11-01T08:55:51.236Z,78.47
2018-11-01T08:58:30.049Z,79.90
2018-11-01T09:01:08.614Z,89.13
2018-11-01T09:03:46.847Z,80.40
2018-11-01T09:06:26.216Z,75.07
2018-11-01T09:09:04.969Z,75.53
2018-11-01T09:11:43.827Z,87.17
2018-11-01T09:14:21.337Z,80.87
2018-11-01T09:17:04.411Z,67.33
2018-11-01T09:19:42.993Z,74.70
2018-11-01T09:22:21.600Z,97.77
2018-11-01T09:25:00.188Z,121.60
2018-11-01T09:27:38.636Z,100.27
2018-11-01T09:30:17.401Z,81.40
2018-11-01T09:32:57.453Z,80.07
2018-11-01T09:35:37.042Z,73.93
2018-11-01T09:38:18.264Z,92.20
2018-11-01T09:40:55.312Z,107.07
2018-11-01T09:43:34.450Z,93.50
2018-11-01T09:46:12.884Z,98.57
2018-11-01T09:48:51.184Z,104.83
2018-11-01T09:51:29.328Z,90.13
2018-11-01T09:54:07.206Z,79.63
2018-11-01T09:56:49.236Z,84.37
2018-11-01T09:59:27.437Z,104.07
2018-11-01T10:02:05.510Z,81.27
2018-11-01T10:04:47.673Z,81.33
2018-11-01T10:07:25.653Z,76.03
2018-11-01T10:10:03.461Z,87.60
2018-11-01T10:12:41.973Z,101.63
2018-11-01T10:15:19.739Z,114.90
2018-11-01T10:17:58.354Z,108.00
2018-11-01T10:20:38.534Z,108.70
2018-11-01T10:23:17.113Z,94.10
2018-11-01T10:25:55.985Z,104.73
2018-11-01T10:28:34.419Z,100.53
2018-11-01T10:31:14.773Z,79.10
2018-11-01T10:33:54.617Z,79.60
2018-11-01T10:36:32.511Z,81.97
2018-11-01T10:39:12.035Z,84.63
2018-11-01T10:41:50.424Z,78.10
2018-11-01T10:44:27.859Z,85.33
2018-11-01T10:47:13.541Z,84.80
2018-11-01T10:49:51.342Z,94.30
2018-11-01T10:52:29.411Z,100.97
2018-11-01T10:55:07.936Z,99.43
2018-11-01T10:57:45.674Z,105.57
2018-11-01T11:02:32.401Z,92.70
2018-11-01T11:05:11.812Z,95.63
2018-11-01T11:07:50.534Z,101.13
2018-11-01T11:10:29.090Z,109.43
2018-11-01T11:13:06.513Z,90.20
2018-11-01T11:15:44.204Z,164.77
2018-11-01T11:18:22.929Z,133.63
2018-11-01T11:21:01.006Z,121.20
2018-11-01T11:23:39.610Z,133.93
2018-11-01T11:26:18.779Z,114.13
2018-11-01T11:28:58.834Z,111.40
2018-11-01T11:31:37.660Z,101.77
2018-11-01T11:34:16.130Z,124.30
2018-11-01T11:36:55.836Z,129.23
2018-11-01T11:39:34.303Z,126.23
2018-11-01T11:42:12.731Z,98.67
2018-11-01T11:44:49.820Z,102.27
2018-11-01T11:47:31.340Z,100.23
2018-11-01T11:50:11.537Z,105.03
2018-11-01T11:52:49.987Z,106.10
2018-11-01T11:55:27.733Z,132.73
2018-11-01T11:58:07.148Z,156.30
2018-11-01T12:02:13.538Z,74.40
2018-11-01T12:04:51.373Z,63.70
2018-11-01T12:07:28.299Z,68.03
2018-11-01T12:10:13.397Z,62.20
2018-11-01T12:12:51.853Z,59.80
2018-11-01T12:15:30.675Z,61.23
2018-11-01T12:43:07.472Z,74.53
2018-11-01T12:45:48.169Z,66.63
2018-11-01T12:48:26.962Z,79.10
2018-11-01T12:51:06.149Z,68.80
2018-11-01T12:54:40.763Z,74.12
2018-11-01T13:04:19.950Z,66.75
2018-11-01T13:16:39.546Z,62.97
2018-11-01T13:19:18.590Z,64.35
2018-11-01T13:21:58.288Z,62.10
2018-11-01T13:24:37.078Z,62.90
2018-11-01T13:27:16.124Z,59.23
2018-11-01T13:29:55.002Z,59.57
2018-11-01T13:32:38.327Z,57.70
2018-11-01T13:35:18.827Z,61.20
2018-11-01T13:38:01.491Z,61.97
2018-11-01T13:40:46.009Z,64.00
2018-11-01T13:43:24.238Z,60.97
2018-11-01T13:46:04.253Z,61.43
2018-11-01T13:48:44.166Z,62.07
2018-11-01T13:51:26.761Z,66.23
2018-11-01T13:54:06.595Z,64.67
2018-11-01T14:56:32.375Z,589.70
2018-11-01T14:59:13.138Z,190.30
2018-11-01T15:01:49.966Z,218.77
2018-11-01T15:04:28.952Z,204.00
2018-11-01T15:07:06.787Z,158.50
2018-11-01T15:09:46.137Z,145.40
2018-11-01T15:12:25.808Z,153.07
2018-11-01T15:15:05.164Z,148.10
2018-11-01T15:17:45.805Z,145.33
2018-11-01T15:20:25.829Z,149.33
2018-11-01T15:23:04.907Z,126.57
2018-11-01T15:25:42.656Z,143.67
2018-11-01T15:28:22.773Z,176.43
2018-11-01T15:31:01.304Z,200.13
2018-11-01T15:33:39.975Z,197.77
2018-11-01T15:36:18.223Z,167.73
2018-11-01T15:42:22.394Z,138.47
2018-11-01T15:45:00.495Z,151.27
2018-11-01T15:47:41.149Z,156.37
2018-11-01T15:50:20.263Z,153.73
2018-11-01T15:53:01.609Z,138.23
2018-11-01T15:55:44.775Z,153.63
2018-11-01T15:58:21.744Z,131.67
2018-11-01T16:00:59.651Z,144.73
2018-11-01T16:03:37.136Z,139.43
2018-11-01T16:06:18.810Z,139.33
2018-11-01T16:08:57.731Z,130.70
2018-11-01T16:11:37.797Z,139.43
2018-11-01T16:14:19.193Z,136.67
2018-11-01T16:16:57.416Z,137.53
2018-11-01T16:19:34.329Z,149.03
2018-11-01T16:22:12.289Z,150.00
2018-11-01T16:24:55.989Z,142.83
2018-11-01T16:27:33.669Z,165.83
2018-11-01T16:30:13.620Z,188.43
2018-11-01T16:32:53.401Z,149.37
2018-11-01T16:35:31.137Z,148.73
2018-11-01T16:38:07.624Z,151.47
2018-11-01T16:40:44.435Z,151.23
2018-11-01T16:43:21.399Z,145.03
2018-11-01T16:45:58.748Z,152.63
2018-11-01T16:48:38.643Z,138.67
2018-11-01T16:51:16.146Z,143.87
2018-11-01T16:53:54.631Z,159.33
2018-11-01T16:56:32.582Z,146.27
2018-11-01T16:59:10.996Z,152.57
2018-11-01T17:01:49.327Z,163.90
2018-11-01T17:04:27.002Z,152.70
2018-11-01T17:07:04.875Z,156.17
2018-11-01T17:09:43.100Z,148.17
2018-11-01T17:12:21.499Z,151.73
2018-11-01T17:14:59.732Z,150.77
2018-11-01T17:17:38.168Z,158.50
2018-11-01T17:20:15.195Z,154.13
2018-11-01T17:22:52.514Z,165.70
2018-11-01T17:25:31.178Z,179.57
2018-11-01T17:28:09.328Z,172.80
2018-11-01T17:30:47.532Z,163.20
2018-11-01T17:33:25.783Z,169.07
2018-11-01T17:36:03.308Z,171.73
2018-11-01T17:38:41.181Z,172.40
2018-11-01T17:41:18.402Z,162.23
2018-11-01T17:43:55.227Z,180.13
2018-11-01T17:46:32.725Z,171.37
2018-11-01T17:49:12.363Z,176.40
2018-11-01T17:51:49.662Z,170.20
2018-11-01T17:54:26.897Z,191.93
2018-11-01T17:57:03.342Z,208.47
2018-11-01T17:59:40.669Z,195.17
2018-11-01T18:02:17.896Z,189.53
2018-11-01T18:04:55.248Z,183.87
2018-11-01T18:07:32.636Z,197.93
2018-11-01T18:10:10.587Z,194.07
2018-11-01T18:12:47.696Z,209.27
2018-11-01T18:15:25.839Z,189.73
2018-11-01T18:18:03.400Z,202.37
2018-11-01T18:20:39.419Z,207.70
2018-11-01T18:23:16.837Z,197.37
2018-11-01T18:25:55.154Z,195.93
2018-11-01T18:28:32.078Z,210.67
2018-11-01T18:31:09.279Z,209.47
2018-11-01T18:33:47.369Z,220.70
2018-11-01T18:36:24.584Z,231.43
2018-11-01T18:39:02.333Z,209.33
2018-11-01T18:41:39.622Z,220.60
2018-11-01T18:44:17.481Z,213.87
2018-11-01T18:46:54.936Z,224.43
2018-11-01T18:49:33.421Z,219.43
2018-11-01T18:52:12.246Z,240.80
2018-11-01T18:54:49.681Z,239.50
2018-11-01T18:57:28.163Z,240.83
2018-11-01T19:00:05.376Z,234.37
2018-11-01T19:02:43.042Z,234.60
2018-11-01T19:05:20.205Z,245.20
2018-11-01T19:07:57.653Z,246.63
2018-11-01T19:10:35.008Z,236.87
2018-11-01T19:13:13.508Z,244.83
2018-11-01T19:15:55.922Z,240.20
2018-11-01T19:18:34.206Z,242.87
2018-11-01T19:21:11.850Z,241.30
2018-11-01T19:23:50.196Z,258.40
2018-11-01T19:26:29.839Z,256.93
2018-11-01T19:29:06.529Z,259.47
2018-11-01T19:31:44.028Z,255.47
2018-11-01T19:34:22.304Z,249.40
2018-11-01T19:37:00.681Z,260.33
2018-11-01T19:39:38.462Z,256.90
2018-11-01T19:42:15.701Z,270.77
2018-11-01T19:44:53.327Z,265.17
2018-11-01T19:47:29.787Z,260.20
2018-11-01T19:50:06.892Z,260.33
2018-11-01T19:52:44.630Z,265.40
2018-11-01T19:55:21.589Z,267.43
2018-11-01T19:57:58.253Z,283.50
2018-11-01T20:00:35.788Z,269.37
2018-11-01T20:03:13.761Z,263.20
2018-11-01T20:05:51.186Z,263.30
2018-11-01T20:09:05.113Z,285.47
2018-11-01T20:11:42.302Z,276.17
2018-11-01T20:14:19.958Z,273.83
2018-11-01T20:16:57.434Z,276.83
2018-11-01T20:19:35.008Z,276.50
2018-11-01T20:22:12.760Z,265.47
2018-11-01T20:24:50.480Z,284.03
2018-11-01T20:27:27.540Z,281.53
2018-11-01T20:30:05.067Z,268.73
2018-11-01T20:32:44.618Z,278.70
2018-11-01T20:35:21.813Z,286.23
2018-11-01T20:37:59.144Z,273.17
2018-11-01T20:40:36.943Z,287.10
2018-11-01T20:43:14.366Z,290.73
2018-11-01T20:45:52.034Z,286.90
2018-11-01T20:48:29.265Z,289.50
2018-11-01T20:51:08.004Z,287.63
2018-11-01T20:53:45.983Z,271.47
2018-11-01T20:56:22.979Z,294.83
2018-11-01T20:59:00.183Z,278.57
2018-11-01T21:01:37.685Z,292.63
2018-11-01T21:04:15.740Z,295.87
2018-11-01T21:06:52.833Z,282.87
2018-11-01T21:09:31.082Z,288.07
2018-11-01T21:12:10.187Z,281.47
2018-11-01T21:14:47.990Z,281.70
2018-11-01T21:17:24.911Z,299.83
2018-11-01T21:20:02.908Z,298.03
2018-11-01T21:22:39.854Z,282.20
2018-11-01T21:25:17.249Z,285.30
2018-11-01T21:27:54.756Z,287.27
2018-11-01T21:30:31.997Z,312.40
2018-11-01T21:33:14.073Z,300.60
2018-11-01T21:35:52.177Z,307.23
2018-11-01T21:38:29.142Z,286.73
2018-11-01T21:41:07.330Z,289.67
2018-11-01T21:43:47.077Z,290.07
2018-11-01T21:46:25.006Z,308.37
2018-11-01T21:49:02.286Z,304.30
2018-11-01T21:51:40.053Z,315.87
2018-11-01T21:54:17.546Z,299.10
2018-11-01T21:56:54.720Z,309.00
2018-11-01T21:59:32.203Z,312.63
2018-11-01T22:02:10.016Z,300.13
2018-11-01T22:04:49.409Z,320.40
2018-11-01T22:07:27.351Z,317.93
2018-11-01T22:10:07.331Z,318.47
2018-11-01T22:12:44.587Z,326.83
2018-11-01T22:15:22.797Z,319.30
2018-11-01T22:18:01.028Z,314.87
2018-11-01T22:20:38.844Z,327.37
2018-11-01T22:23:16.641Z,332.33
2018-11-01T22:25:53.933Z,306.13
2018-11-01T22:28:31.627Z,326.97
2018-11-01T22:31:09.824Z,321.03
2018-11-01T22:33:46.825Z,323.50
2018-11-01T22:36:24.441Z,319.40
2018-11-01T22:39:01.999Z,329.63
2018-11-01T22:41:39.636Z,311.30
2018-11-01T22:44:16.248Z,324.20
2018-11-01T22:46:53.814Z,317.03
2018-11-01T22:49:31.904Z,320.03
2018-11-01T22:54:55.310Z,313.53
2018-11-01T22:57:34.920Z,306.23
2018-11-01T23:00:16.192Z,323.37
2018-11-01T23:02:54.572Z,310.23
2018-11-01T23:05:32.334Z,302.70
2018-11-01T23:08:09.083Z,311.77
2018-11-01T23:10:46.398Z,307.73
2018-11-01T23:13:24.196Z,332.53
2018-11-01T23:16:03.312Z,323.40
2018-11-01T23:18:41.772Z,309.43
2018-11-01T23:21:18.341Z,298.70
2018-11-01T23:24:07.587Z,317.43
2018-11-01T23:26:47.062Z,309.63
2018-11-01T23:29:23.973Z,306.30
2018-11-01T23:32:01.592Z,322.00
2018-11-01T23:34:40.059Z,309.17
2018-11-01T23:37:20.611Z,297.60
2018-11-01T23:40:05.899Z,312.93
2018-11-01T23:42:53.994Z,313.93
2018-11-01T23:48:23.126Z,317.03
2018-11-01T23:51:03.934Z,310.97
2018-11-01T23:53:45.383Z,313.80
2018-11-01T23:56:25.058Z,305.10
2018-11-01T23:59:02.826Z,306.30
